Guymon, OK (73942)

5:16 PM CDT on August 28, 2015 (GMT -0500)
Guymon Municipal | | Change Station
CLOSE
Current Station
Airport
Location: Guymon,
Elevation: 3123 ft
Nearby Weather Stations

Elev 3123 ft 36.68 °N, 101.51 °W | Updated 23 minutes ago

Clear
Clear
91 °F
Feels Like 89 °F
N
7
Wind Variable Wind from NE

Today
High -- | Low -- °F
--% Chance of Precip.
Yesterday
High -- | Low -- °F
Precip. -- in
7:13 AM 8:20 PM
Waxing Gibbous, 99% visible
Pressure 29.86 in
Visibility 10.0 miles
Clouds Clear
Heat Index 89 °F
Dew Point 55 °F
Humidity 29%
Rainfall 0.08 in
Snow Depth Not available.
UV 5 out of 12
Pollen 7.00 out of 12
Air Quality Not available.
Flu Activity Not available.
METAR KGUY 282153Z AUTO 04006KT 10SM CLR 33/13 A3001 RMK AO2 SLP110 T03280128
Pressure 29.86 in
Visibility 10.0 miles
Clouds Clear
Heat Index 89 °F
Dew Point 55 °F
Humidity 29%
Rainfall 0.08 in
Snow Depth Not available.
UV 5 out of 12
Pollen 7.00 out of 12
Air Quality Not available.
Flu Activity Not available.
METAR KGUY 282153Z AUTO 04006KT 10SM CLR 33/13 A3001 RMK AO2 SLP110 T03280128
Nowcast | as of 3:50 PM CDT on August 28, 2015

Isolated showers and thunderstorms will continue to develop and move southeast at 15 mph across the southeast and east central Texas Panhandle through the late afternoon. Isolated showers and thunderstorms will also move into the western Oklahoma Panhandle and the far northwest Texas Panhandle out of southeast Colorado and northeast New Mexico. Hourly rainfall amounts will remain around a tenth of an inch or less with most of this activity...but may reach up to a quarter of an inch with the stronger storms. Brief wind gusts to around 45 mph may also accompany the stronger storms. Kenton...felt...Boise City...Lake Marvin...Hedley...Shamrock...and Wellington are some locations that could see a shower or thunderstorm through 6 PM CDT.

×

10-Day Weather Forecast

×

Almanac

Astronomy

Aug. 28, 2015 Rise Set
Actual Time
Civil Twilight
Nautical Twilight
Astronomical Twilight
Moon
Length of Visible Light
Length of Day
Tomorrow will be .
, % of the Moon is Illuminated

Today's Extremes

State Highs State Lows

Community

WunderPhotos

Upload Photos

1,850,515 photos uploaded!

WunderBlogs® & News

Nearby

Air Quality

  Air Quality AQ Index Pollutant
Not available.

Snow Depth

Station Depth Elevation

Earthquake Activity

City Distance Mag. Time & Date
Minimum magnitude displayed is 2.5.

Coastal Water Temperatures

Place Temperature

Stations

Nearby Weather Stations

Station Location Temp. Windchill Dew Point Humidity Wind Precip. Elev Updated Type